sensor_id;sensor_type;location;lat;lon;timestamp;P1;durP1;ratioP1;P2;durP2;ratioP2
20865;SDS011;10593;48.398;10.698;2023-10-13T00:01:54;3.10;;;2.77;;
20865;SDS011;10593;48.398;10.698;2023-10-13T00:04:24;4.03;;;2.20;;
20865;SDS011;10593;48.398;10.698;2023-10-13T00:06:51;3.17;;;2.00;;
20865;SDS011;10593;48.398;10.698;2023-10-13T00:09:18;2.80;;;1.93;;
20865;SDS011;10593;48.398;10.698;2023-10-13T00:11:50;2.30;;;2.10;;
20865;SDS011;10593;48.398;10.698;2023-10-13T00:14:18;3.97;;;2.00;;
20865;SDS011;10593;48.398;10.698;2023-10-13T00:16:46;2.20;;;2.10;;
20865;SDS011;10593;48.398;10.698;2023-10-13T00:19:38;2.80;;;2.20;;
20865;SDS011;10593;48.398;10.698;2023-10-13T00:22:17;2.80;;;2.50;;
20865;SDS011;10593;48.398;10.698;2023-10-13T00:24:47;2.30;;;2.10;;
20865;SDS011;10593;48.398;10.698;2023-10-13T00:27:17;2.30;;;2.10;;
20865;SDS011;10593;48.398;10.698;2023-10-13T00:30:06;2.80;;;2.40;;
20865;SDS011;10593;48.398;10.698;2023-10-13T00:32:50;3.10;;;2.80;;
20865;SDS011;10593;48.398;10.698;2023-10-13T00:35:23;2.77;;;2.40;;
20865;SDS011;10593;48.398;10.698;2023-10-13T00:37:53;2.67;;;2.40;;
20865;SDS011;10593;48.398;10.698;2023-10-13T00:40:19;3.63;;;2.03;;
20865;SDS011;10593;48.398;10.698;2023-10-13T00:42:56;3.60;;;2.73;;
20865;SDS011;10593;48.398;10.698;2023-10-13T00:48:28;3.63;;;2.83;;
20865;SDS011;10593;48.398;10.698;2023-10-13T00:51:03;4.43;;;2.77;;
20865;SDS011;10593;48.398;10.698;2023-10-13T00:53:38;3.20;;;2.47;;
20865;SDS011;10593;48.398;10.698;2023-10-13T00:56:05;3.13;;;2.40;;
20865;SDS011;10593;48.398;10.698;2023-10-13T00:58:36;4.10;;;2.67;;
20865;SDS011;10593;48.398;10.698;2023-10-13T01:01:05;3.33;;;2.17;;
20865;SDS011;10593;48.398;10.698;2023-10-13T01:03:43;2.30;;;2.20;;
20865;SDS011;10593;48.398;10.698;2023-10-13T01:06:24;3.17;;;2.67;;
20865;SDS011;10593;48.398;10.698;2023-10-13T01:09:08;5.10;;;2.97;;
20865;SDS011;10593;48.398;10.698;2023-10-13T01:14:12;3.53;;;2.57;;
20865;SDS011;10593;48.398;10.698;2023-10-13T01:16:42;3.77;;;2.40;;
20865;SDS011;10593;48.398;10.698;2023-10-13T01:19:10;2.77;;;2.33;;
20865;SDS011;10593;48.398;10.698;2023-10-13T01:21:42;2.30;;;2.20;;
20865;SDS011;10593;48.398;10.698;2023-10-13T01:24:12;5.20;;;2.60;;
20865;SDS011;10593;48.398;10.698;2023-10-13T01:26:39;4.63;;;2.50;;
20865;SDS011;10593;48.398;10.698;2023-10-13T01:29:06;2.83;;;2.60;;
20865;SDS011;10593;48.398;10.698;2023-10-13T01:31:42;3.37;;;2.50;;
20865;SDS011;10593;48.398;10.698;2023-10-13T01:36:39;4.23;;;2.43;;
20865;SDS011;10593;48.398;10.698;2023-10-13T01:39:06;7.67;;;3.07;;
20865;SDS011;10593;48.398;10.698;2023-10-13T01:41:35;2.53;;;2.33;;
20865;SDS011;10593;48.398;10.698;2023-10-13T01:44:04;2.93;;;2.40;;
20865;SDS011;10593;48.398;10.698;2023-10-13T01:46:30;2.97;;;2.27;;
20865;SDS011;10593;48.398;10.698;2023-10-13T01:48:56;6.30;;;2.93;;
20865;SDS011;10593;48.398;10.698;2023-10-13T01:51:22;3.40;;;2.63;;
20865;SDS011;10593;48.398;10.698;2023-10-13T01:53:53;4.47;;;2.50;;
20865;SDS011;10593;48.398;10.698;2023-10-13T01:56:23;3.80;;;2.53;;
20865;SDS011;10593;48.398;10.698;2023-10-13T01:58:49;3.17;;;2.40;;
20865;SDS011;10593;48.398;10.698;2023-10-13T02:01:15;4.03;;;2.83;;
20865;SDS011;10593;48.398;10.698;2023-10-13T02:03:54;3.07;;;2.40;;
20865;SDS011;10593;48.398;10.698;2023-10-13T02:06:30;4.57;;;2.87;;
20865;SDS011;10593;48.398;10.698;2023-10-13T02:09:01;5.33;;;2.57;;
20865;SDS011;10593;48.398;10.698;2023-10-13T02:11:39;2.80;;;2.47;;
20865;SDS011;10593;48.398;10.698;2023-10-13T02:14:06;2.50;;;2.30;;
20865;SDS011;10593;48.398;10.698;2023-10-13T02:16:32;3.97;;;2.50;;
20865;SDS011;10593;48.398;10.698;2023-10-13T02:18:58;2.60;;;2.40;;
20865;SDS011;10593;48.398;10.698;2023-10-13T02:21:29;3.30;;;2.53;;
20865;SDS011;10593;48.398;10.698;2023-10-13T02:23:57;5.50;;;2.30;;
20865;SDS011;10593;48.398;10.698;2023-10-13T02:26:29;2.40;;;2.20;;
20865;SDS011;10593;48.398;10.698;2023-10-13T02:28:57;3.33;;;2.30;;
20865;SDS011;10593;48.398;10.698;2023-10-13T02:31:28;4.17;;;2.73;;
20865;SDS011;10593;48.398;10.698;2023-10-13T02:33:53;3.10;;;2.40;;
20865;SDS011;10593;48.398;10.698;2023-10-13T02:36:19;3.80;;;2.43;;
20865;SDS011;10593;48.398;10.698;2023-10-13T02:39:00;3.33;;;3.03;;
20865;SDS011;10593;48.398;10.698;2023-10-13T02:41:33;3.57;;;2.50;;
20865;SDS011;10593;48.398;10.698;2023-10-13T02:44:03;3.07;;;2.47;;
20865;SDS011;10593;48.398;10.698;2023-10-13T02:46:35;4.17;;;2.63;;
20865;SDS011;10593;48.398;10.698;2023-10-13T02:49:04;2.37;;;2.17;;
20865;SDS011;10593;48.398;10.698;2023-10-13T02:51:38;4.00;;;2.77;;
20865;SDS011;10593;48.398;10.698;2023-10-13T02:54:09;4.00;;;2.37;;
20865;SDS011;10593;48.398;10.698;2023-10-13T02:56:36;3.20;;;2.57;;
20865;SDS011;10593;48.398;10.698;2023-10-13T02:59:02;2.80;;;2.60;;
20865;SDS011;10593;48.398;10.698;2023-10-13T03:01:30;2.70;;;2.50;;
20865;SDS011;10593;48.398;10.698;2023-10-13T03:04:00;5.00;;;2.57;;
20865;SDS011;10593;48.398;10.698;2023-10-13T03:06:28;2.93;;;2.70;;
20865;SDS011;10593;48.398;10.698;2023-10-13T03:09:30;5.50;;;2.77;;
20865;SDS011;10593;48.398;10.698;2023-10-13T03:11:49;2.83;;;2.57;;
20865;SDS011;10593;48.398;10.698;2023-10-13T03:16:58;3.10;;;2.50;;
20865;SDS011;10593;48.398;10.698;2023-10-13T03:19:30;3.43;;;2.40;;
20865;SDS011;10593;48.398;10.698;2023-10-13T03:22:00;4.43;;;2.43;;
20865;SDS011;10593;48.398;10.698;2023-10-13T03:24:50;2.40;;;2.20;;
20865;SDS011;10593;48.398;10.698;2023-10-13T03:27:18;2.77;;;2.40;;
20865;SDS011;10593;48.398;10.698;2023-10-13T03:29:48;4.10;;;2.37;;
20865;SDS011;10593;48.398;10.698;2023-10-13T03:32:21;3.60;;;2.40;;
20865;SDS011;10593;48.398;10.698;2023-10-13T03:34:51;2.53;;;2.33;;
20865;SDS011;10593;48.398;10.698;2023-10-13T03:37:25;3.20;;;2.63;;
20865;SDS011;10593;48.398;10.698;2023-10-13T03:40:07;2.90;;;2.63;;
20865;SDS011;10593;48.398;10.698;2023-10-13T03:42:44;3.57;;;2.43;;
20865;SDS011;10593;48.398;10.698;2023-10-13T03:45:23;3.93;;;2.70;;
20865;SDS011;10593;48.398;10.698;2023-10-13T03:47:52;3.07;;;2.77;;
20865;SDS011;10593;48.398;10.698;2023-10-13T03:50:19;2.57;;;2.37;;
20865;SDS011;10593;48.398;10.698;2023-10-13T03:52:55;4.10;;;2.37;;
20865;SDS011;10593;48.398;10.698;2023-10-13T03:55:24;3.57;;;2.60;;
20865;SDS011;10593;48.398;10.698;2023-10-13T03:57:55;4.07;;;2.60;;
20865;SDS011;10593;48.398;10.698;2023-10-13T04:00:24;2.40;;;2.20;;
20865;SDS011;10593;48.398;10.698;2023-10-13T04:02:51;3.00;;;2.40;;
20865;SDS011;10593;48.398;10.698;2023-10-13T04:05:36;3.20;;;2.40;;
20865;SDS011;10593;48.398;10.698;2023-10-13T04:08:05;2.47;;;2.27;;
20865;SDS011;10593;48.398;10.698;2023-10-13T04:10:51;3.20;;;2.63;;
20865;SDS011;10593;48.398;10.698;2023-10-13T04:13:17;2.77;;;2.40;;
20865;SDS011;10593;48.398;10.698;2023-10-13T04:16:12;3.53;;;2.67;;
20865;SDS011;10593;48.398;10.698;2023-10-13T04:18:59;4.23;;;2.70;;
20865;SDS011;10593;48.398;10.698;2023-10-13T04:21:26;3.80;;;2.47;;
20865;SDS011;10593;48.398;10.698;2023-10-13T04:24:07;2.67;;;2.30;;
20865;SDS011;10593;48.398;10.698;2023-10-13T04:26:50;5.43;;;2.70;;
20865;SDS011;10593;48.398;10.698;2023-10-13T04:29:36;4.20;;;2.77;;
20865;SDS011;10593;48.398;10.698;2023-10-13T04:32:21;4.20;;;2.70;;
20865;SDS011;10593;48.398;10.698;2023-10-13T04:34:56;3.63;;;2.10;;
20865;SDS011;10593;48.398;10.698;2023-10-13T04:37:44;3.73;;;2.97;;
20865;SDS011;10593;48.398;10.698;2023-10-13T04:40:25;3.27;;;2.63;;
20865;SDS011;10593;48.398;10.698;2023-10-13T04:42:53;3.40;;;2.50;;
20865;SDS011;10593;48.398;10.698;2023-10-13T04:45:21;6.13;;;2.77;;
20865;SDS011;10593;48.398;10.698;2023-10-13T04:47:56;6.13;;;2.40;;
20865;SDS011;10593;48.398;10.698;2023-10-13T04:50:38;4.43;;;2.77;;
20865;SDS011;10593;48.398;10.698;2023-10-13T04:53:10;2.93;;;2.50;;
20865;SDS011;10593;48.398;10.698;2023-10-13T04:55:55;3.20;;;2.90;;
20865;SDS011;10593;48.398;10.698;2023-10-13T04:58:31;4.23;;;2.93;;
20865;SDS011;10593;48.398;10.698;2023-10-13T05:01:04;4.87;;;2.87;;
20865;SDS011;10593;48.398;10.698;2023-10-13T05:04:08;3.43;;;2.80;;
20865;SDS011;10593;48.398;10.698;2023-10-13T05:06:39;3.27;;;2.70;;
20865;SDS011;10593;48.398;10.698;2023-10-13T05:09:14;3.70;;;2.70;;
20865;SDS011;10593;48.398;10.698;2023-10-13T05:11:58;4.67;;;2.50;;
20865;SDS011;10593;48.398;10.698;2023-10-13T05:14:43;5.23;;;2.77;;
20865;SDS011;10593;48.398;10.698;2023-10-13T05:17:27;7.13;;;2.63;;
20865;SDS011;10593;48.398;10.698;2023-10-13T05:20:11;3.00;;;2.70;;
20865;SDS011;10593;48.398;10.698;2023-10-13T05:22:55;3.83;;;2.80;;
20865;SDS011;10593;48.398;10.698;2023-10-13T05:25:39;3.40;;;2.03;;
20865;SDS011;10593;48.398;10.698;2023-10-13T05:28:23;4.17;;;2.40;;
20865;SDS011;10593;48.398;10.698;2023-10-13T05:31:07;3.37;;;2.57;;
20865;SDS011;10593;48.398;10.698;2023-10-13T05:33:52;4.20;;;2.53;;
20865;SDS011;10593;48.398;10.698;2023-10-13T05:36:37;3.37;;;2.40;;
20865;SDS011;10593;48.398;10.698;2023-10-13T05:39:22;2.93;;;2.43;;
20865;SDS011;10593;48.398;10.698;2023-10-13T05:42:07;3.50;;;2.40;;
20865;SDS011;10593;48.398;10.698;2023-10-13T05:44:52;3.73;;;2.73;;
20865;SDS011;10593;48.398;10.698;2023-10-13T05:47:36;3.93;;;2.53;;
20865;SDS011;10593;48.398;10.698;2023-10-13T05:50:08;3.87;;;2.40;;
20865;SDS011;10593;48.398;10.698;2023-10-13T05:52:45;4.13;;;2.87;;
20865;SDS011;10593;48.398;10.698;2023-10-13T05:55:21;2.70;;;2.50;;
20865;SDS011;10593;48.398;10.698;2023-10-13T05:58:10;4.77;;;2.90;;
20865;SDS011;10593;48.398;10.698;2023-10-13T06:00:56;2.60;;;2.40;;
20865;SDS011;10593;48.398;10.698;2023-10-13T06:03:41;3.50;;;2.57;;
20865;SDS011;10593;48.398;10.698;2023-10-13T06:06:25;5.93;;;2.63;;
20865;SDS011;10593;48.398;10.698;2023-10-13T06:09:09;3.53;;;2.63;;
20865;SDS011;10593;48.398;10.698;2023-10-13T06:11:53;2.77;;;2.43;;
20865;SDS011;10593;48.398;10.698;2023-10-13T06:14:37;2.50;;;2.30;;
20865;SDS011;10593;48.398;10.698;2023-10-13T06:17:22;5.20;;;2.60;;
20865;SDS011;10593;48.398;10.698;2023-10-13T06:20:06;2.50;;;2.30;;
20865;SDS011;10593;48.398;10.698;2023-10-13T06:22:51;3.93;;;3.00;;
20865;SDS011;10593;48.398;10.698;2023-10-13T06:25:36;4.40;;;2.73;;
20865;SDS011;10593;48.398;10.698;2023-10-13T06:28:21;2.23;;;2.03;;
20865;SDS011;10593;48.398;10.698;2023-10-13T06:31:06;3.50;;;2.40;;
20865;SDS011;10593;48.398;10.698;2023-10-13T06:33:36;4.47;;;2.40;;
20865;SDS011;10593;48.398;10.698;2023-10-13T06:36:10;2.80;;;2.50;;
20865;SDS011;10593;48.398;10.698;2023-10-13T06:38:36;3.53;;;2.50;;
20865;SDS011;10593;48.398;10.698;2023-10-13T06:41:02;2.60;;;2.40;;
20865;SDS011;10593;48.398;10.698;2023-10-13T06:43:35;2.53;;;2.33;;
20865;SDS011;10593;48.398;10.698;2023-10-13T06:46:05;2.47;;;2.10;;
20865;SDS011;10593;48.398;10.698;2023-10-13T06:48:48;4.07;;;2.50;;
20865;SDS011;10593;48.398;10.698;2023-10-13T06:51:18;3.13;;;2.60;;
20865;SDS011;10593;48.398;10.698;2023-10-13T06:53:46;3.73;;;2.23;;
20865;SDS011;10593;48.398;10.698;2023-10-13T06:56:13;2.63;;;2.27;;
20865;SDS011;10593;48.398;10.698;2023-10-13T06:58:47;2.60;;;2.27;;
20865;SDS011;10593;48.398;10.698;2023-10-13T07:01:14;4.87;;;2.27;;
20865;SDS011;10593;48.398;10.698;2023-10-13T07:03:43;3.60;;;2.40;;
20865;SDS011;10593;48.398;10.698;2023-10-13T07:06:08;3.77;;;2.80;;
20865;SDS011;10593;48.398;10.698;2023-10-13T07:08:43;4.03;;;2.30;;
20865;SDS011;10593;48.398;10.698;2023-10-13T07:11:17;3.53;;;2.20;;
20865;SDS011;10593;48.398;10.698;2023-10-13T07:14:00;3.70;;;2.43;;
20865;SDS011;10593;48.398;10.698;2023-10-13T07:19:32;3.23;;;2.63;;
20865;SDS011;10593;48.398;10.698;2023-10-13T07:21:59;4.83;;;2.70;;
20865;SDS011;10593;48.398;10.698;2023-10-13T07:24:45;2.57;;;2.10;;
20865;SDS011;10593;48.398;10.698;2023-10-13T07:27:16;6.83;;;2.43;;
20865;SDS011;10593;48.398;10.698;2023-10-13T07:29:50;4.60;;;2.30;;
20865;SDS011;10593;48.398;10.698;2023-10-13T07:32:39;2.93;;;2.40;;
20865;SDS011;10593;48.398;10.698;2023-10-13T07:35:14;2.87;;;2.27;;
20865;SDS011;10593;48.398;10.698;2023-10-13T07:37:45;2.40;;;2.10;;
20865;SDS011;10593;48.398;10.698;2023-10-13T07:40:17;5.17;;;2.63;;
20865;SDS011;10593;48.398;10.698;2023-10-13T07:42:55;5.60;;;2.40;;
20865;SDS011;10593;48.398;10.698;2023-10-13T07:45:42;6.83;;;2.70;;
20865;SDS011;10593;48.398;10.698;2023-10-13T07:48:09;5.40;;;2.80;;
20865;SDS011;10593;48.398;10.698;2023-10-13T07:50:52;3.10;;;2.63;;
20865;SDS011;10593;48.398;10.698;2023-10-13T07:53:29;3.97;;;2.40;;
20865;SDS011;10593;48.398;10.698;2023-10-13T07:56:22;2.93;;;2.17;;
20865;SDS011;10593;48.398;10.698;2023-10-13T07:58:47;4.23;;;2.70;;
20865;SDS011;10593;48.398;10.698;2023-10-13T08:01:25;4.27;;;2.47;;
20865;SDS011;10593;48.398;10.698;2023-10-13T08:03:51;4.33;;;2.87;;
20865;SDS011;10593;48.398;10.698;2023-10-13T08:06:30;2.07;;;1.87;;
20865;SDS011;10593;48.398;10.698;2023-10-13T08:08:55;3.93;;;2.23;;
20865;SDS011;10593;48.398;10.698;2023-10-13T08:11:32;3.40;;;1.83;;
20865;SDS011;10593;48.398;10.698;2023-10-13T08:14:00;3.80;;;2.33;;
20865;SDS011;10593;48.398;10.698;2023-10-13T08:16:47;5.20;;;2.30;;
20865;SDS011;10593;48.398;10.698;2023-10-13T08:19:23;4.17;;;2.20;;
20865;SDS011;10593;48.398;10.698;2023-10-13T08:22:04;2.23;;;1.93;;
20865;SDS011;10593;48.398;10.698;2023-10-13T08:24:48;2.67;;;2.20;;
20865;SDS011;10593;48.398;10.698;2023-10-13T08:27:17;4.43;;;2.23;;
20865;SDS011;10593;48.398;10.698;2023-10-13T08:29:59;8.73;;;2.67;;
20865;SDS011;10593;48.398;10.698;2023-10-13T08:32:44;2.40;;;2.00;;
20865;SDS011;10593;48.398;10.698;2023-10-13T08:35:20;2.23;;;1.73;;
20865;SDS011;10593;48.398;10.698;2023-10-13T08:37:55;4.00;;;2.00;;
20865;SDS011;10593;48.398;10.698;2023-10-13T08:40:26;4.40;;;2.00;;
20865;SDS011;10593;48.398;10.698;2023-10-13T08:43:11;2.00;;;1.80;;
20865;SDS011;10593;48.398;10.698;2023-10-13T08:45:41;4.03;;;1.70;;
20865;SDS011;10593;48.398;10.698;2023-10-13T08:48:09;3.03;;;1.83;;
20865;SDS011;10593;48.398;10.698;2023-10-13T08:50:49;3.30;;;1.70;;
20865;SDS011;10593;48.398;10.698;2023-10-13T08:58:38;2.50;;;1.80;;
20865;SDS011;10593;48.398;10.698;2023-10-13T09:01:18;3.73;;;1.87;;
20865;SDS011;10593;48.398;10.698;2023-10-13T09:04:00;1.80;;;1.60;;
20865;SDS011;10593;48.398;10.698;2023-10-13T09:12:11;2.30;;;1.90;;
20865;SDS011;10593;48.398;10.698;2023-10-13T09:14:39;2.50;;;1.60;;
20865;SDS011;10593;48.398;10.698;2023-10-13T09:17:13;4.57;;;1.70;;
20865;SDS011;10593;48.398;10.698;2023-10-13T09:22:27;4.20;;;1.97;;
20865;SDS011;10593;48.398;10.698;2023-10-13T09:25:00;2.37;;;1.70;;
20865;SDS011;10593;48.398;10.698;2023-10-13T09:27:30;2.50;;;1.70;;
20865;SDS011;10593;48.398;10.698;2023-10-13T09:30:01;6.07;;;1.80;;
20865;SDS011;10593;48.398;10.698;2023-10-13T09:32:35;2.67;;;1.70;;
20865;SDS011;10593;48.398;10.698;2023-10-13T09:35:11;3.90;;;2.23;;
20865;SDS011;10593;48.398;10.698;2023-10-13T09:37:48;1.93;;;1.73;;
20865;SDS011;10593;48.398;10.698;2023-10-13T09:40:16;1.60;;;1.50;;
20865;SDS011;10593;48.398;10.698;2023-10-13T09:42:59;1.87;;;1.50;;
20865;SDS011;10593;48.398;10.698;2023-10-13T09:45:32;4.00;;;1.57;;
20865;SDS011;10593;48.398;10.698;2023-10-13T09:48:05;2.27;;;1.50;;
20865;SDS011;10593;48.398;10.698;2023-10-13T09:50:47;2.60;;;1.50;;
20865;SDS011;10593;48.398;10.698;2023-10-13T09:53:14;1.73;;;1.40;;
20865;SDS011;10593;48.398;10.698;2023-10-13T10:01:42;2.40;;;1.63;;
20865;SDS011;10593;48.398;10.698;2023-10-13T10:04:16;3.33;;;2.00;;
20865;SDS011;10593;48.398;10.698;2023-10-13T10:06:53;2.13;;;1.70;;
20865;SDS011;10593;48.398;10.698;2023-10-13T10:09:30;7.13;;;1.73;;
20865;SDS011;10593;48.398;10.698;2023-10-13T10:18:00;2.73;;;2.00;;
20865;SDS011;10593;48.398;10.698;2023-10-13T10:20:35;4.40;;;1.77;;
20865;SDS011;10593;48.398;10.698;2023-10-13T10:23:09;2.13;;;1.70;;
20865;SDS011;10593;48.398;10.698;2023-10-13T10:25:46;2.27;;;1.80;;
20865;SDS011;10593;48.398;10.698;2023-10-13T10:28:16;2.87;;;1.60;;
20865;SDS011;10593;48.398;10.698;2023-10-13T10:30:45;3.57;;;1.50;;
20865;SDS011;10593;48.398;10.698;2023-10-13T10:33:11;3.50;;;1.73;;
20865;SDS011;10593;48.398;10.698;2023-10-13T10:35:41;6.17;;;2.00;;
20865;SDS011;10593;48.398;10.698;2023-10-13T10:38:21;2.30;;;1.90;;
20865;SDS011;10593;48.398;10.698;2023-10-13T10:41:02;4.37;;;1.87;;
20865;SDS011;10593;48.398;10.698;2023-10-13T10:48:52;1.67;;;1.57;;
20865;SDS011;10593;48.398;10.698;2023-10-13T10:51:25;7.47;;;2.30;;
20865;SDS011;10593;48.398;10.698;2023-10-13T10:53:56;2.87;;;1.53;;
20865;SDS011;10593;48.398;10.698;2023-10-13T10:56:36;7.13;;;1.50;;
20865;SDS011;10593;48.398;10.698;2023-10-13T10:59:03;4.57;;;1.87;;
20865;SDS011;10593;48.398;10.698;2023-10-13T11:01:42;2.13;;;1.50;;
20865;SDS011;10593;48.398;10.698;2023-10-13T11:04:12;2.67;;;1.77;;
20865;SDS011;10593;48.398;10.698;2023-10-13T11:06:46;3.37;;;1.50;;
20865;SDS011;10593;48.398;10.698;2023-10-13T11:09:14;3.67;;;1.80;;
20865;SDS011;10593;48.398;10.698;2023-10-13T11:11:55;2.47;;;1.50;;
20865;SDS011;10593;48.398;10.698;2023-10-13T11:14:58;3.47;;;1.80;;
20865;SDS011;10593;48.398;10.698;2023-10-13T11:17:58;3.80;;;1.80;;
20865;SDS011;10593;48.398;10.698;2023-10-13T11:20:24;1.70;;;1.50;;
20865;SDS011;10593;48.398;10.698;2023-10-13T11:23:10;3.67;;;1.70;;
20865;SDS011;10593;48.398;10.698;2023-10-13T11:25:40;2.67;;;1.70;;
20865;SDS011;10593;48.398;10.698;2023-10-13T11:28:10;4.13;;;1.83;;
20865;SDS011;10593;48.398;10.698;2023-10-13T11:30:45;2.63;;;1.80;;
20865;SDS011;10593;48.398;10.698;2023-10-13T11:33:15;2.90;;;1.60;;
20865;SDS011;10593;48.398;10.698;2023-10-13T11:35:44;4.03;;;1.73;;
20865;SDS011;10593;48.398;10.698;2023-10-13T11:38:34;3.33;;;1.40;;
20865;SDS011;10593;48.398;10.698;2023-10-13T11:41:15;1.50;;;1.40;;
20865;SDS011;10593;48.398;10.698;2023-10-13T11:43:50;1.90;;;1.80;;
20865;SDS011;10593;48.398;10.698;2023-10-13T11:49:01;3.00;;;2.10;;
20865;SDS011;10593;48.398;10.698;2023-10-13T11:51:43;2.50;;;1.33;;
20865;SDS011;10593;48.398;10.698;2023-10-13T11:54:14;1.70;;;1.60;;
20865;SDS011;10593;48.398;10.698;2023-10-13T11:56:42;2.63;;;1.50;;
20865;SDS011;10593;48.398;10.698;2023-10-13T11:59:11;2.20;;;1.40;;
20865;SDS011;10593;48.398;10.698;2023-10-13T12:01:47;1.67;;;1.40;;
20865;SDS011;10593;48.398;10.698;2023-10-13T12:04:32;4.93;;;1.50;;
20865;SDS011;10593;48.398;10.698;2023-10-13T12:07:16;1.83;;;1.70;;
20865;SDS011;10593;48.398;10.698;2023-10-13T12:09:49;2.77;;;1.70;;
20865;SDS011;10593;48.398;10.698;2023-10-13T12:12:25;3.27;;;1.60;;
20865;SDS011;10593;48.398;10.698;2023-10-13T12:14:53;3.17;;;1.77;;
20865;SDS011;10593;48.398;10.698;2023-10-13T12:17:26;2.90;;;2.13;;
20865;SDS011;10593;48.398;10.698;2023-10-13T12:20:03;1.40;;;1.20;;
20865;SDS011;10593;48.398;10.698;2023-10-13T12:22:31;3.40;;;2.07;;
20865;SDS011;10593;48.398;10.698;2023-10-13T12:25:04;3.67;;;1.50;;
20865;SDS011;10593;48.398;10.698;2023-10-13T12:27:59;4.10;;;1.60;;
20865;SDS011;10593;48.398;10.698;2023-10-13T12:30:46;4.57;;;1.37;;
20865;SDS011;10593;48.398;10.698;2023-10-13T12:33:14;1.77;;;1.67;;
20865;SDS011;10593;48.398;10.698;2023-10-13T12:35:49;2.23;;;1.90;;
20865;SDS011;10593;48.398;10.698;2023-10-13T12:38:38;5.53;;;1.93;;
20865;SDS011;10593;48.398;10.698;2023-10-13T12:41:15;3.20;;;1.60;;
20865;SDS011;10593;48.398;10.698;2023-10-13T12:44:04;1.93;;;1.37;;
20865;SDS011;10593;48.398;10.698;2023-10-13T12:46:50;2.17;;;1.63;;
20865;SDS011;10593;48.398;10.698;2023-10-13T12:49:35;3.60;;;1.97;;
20865;SDS011;10593;48.398;10.698;2023-10-13T12:52:08;2.67;;;1.90;;
20865;SDS011;10593;48.398;10.698;2023-10-13T12:54:57;2.80;;;1.80;;
20865;SDS011;10593;48.398;10.698;2023-10-13T12:57:26;3.50;;;1.77;;
20865;SDS011;10593;48.398;10.698;2023-10-13T12:59:53;2.33;;;1.73;;
20865;SDS011;10593;48.398;10.698;2023-10-13T13:02:23;2.83;;;1.70;;
20865;SDS011;10593;48.398;10.698;2023-10-13T13:04:54;3.70;;;2.17;;
20865;SDS011;10593;48.398;10.698;2023-10-13T13:07:31;2.27;;;1.63;;
20865;SDS011;10593;48.398;10.698;2023-10-13T13:10:08;2.50;;;1.70;;
20865;SDS011;10593;48.398;10.698;2023-10-13T13:12:36;2.03;;;1.70;;
20865;SDS011;10593;48.398;10.698;2023-10-13T13:15:02;3.43;;;1.90;;
20865;SDS011;10593;48.398;10.698;2023-10-13T13:17:33;3.73;;;1.83;;
20865;SDS011;10593;48.398;10.698;2023-10-13T13:20:01;5.13;;;1.77;;
20865;SDS011;10593;48.398;10.698;2023-10-13T13:22:35;5.77;;;1.90;;
20865;SDS011;10593;48.398;10.698;2023-10-13T13:25:03;1.73;;;1.50;;
20865;SDS011;10593;48.398;10.698;2023-10-13T13:27:33;1.87;;;1.50;;
20865;SDS011;10593;48.398;10.698;2023-10-13T13:29:59;3.13;;;1.50;;
20865;SDS011;10593;48.398;10.698;2023-10-13T13:32:25;2.57;;;2.13;;
20865;SDS011;10593;48.398;10.698;2023-10-13T13:34:53;3.10;;;1.83;;
20865;SDS011;10593;48.398;10.698;2023-10-13T13:37:20;4.30;;;2.20;;
20865;SDS011;10593;48.398;10.698;2023-10-13T13:39:46;6.67;;;1.80;;
20865;SDS011;10593;48.398;10.698;2023-10-13T13:42:12;2.10;;;1.70;;
20865;SDS011;10593;48.398;10.698;2023-10-13T13:44:43;5.97;;;1.87;;
20865;SDS011;10593;48.398;10.698;2023-10-13T13:47:11;3.97;;;1.87;;
20865;SDS011;10593;48.398;10.698;2023-10-13T13:49:40;2.67;;;1.87;;
20865;SDS011;10593;48.398;10.698;2023-10-13T13:52:16;3.90;;;2.07;;
20865;SDS011;10593;48.398;10.698;2023-10-13T13:54:43;3.03;;;1.90;;
20865;SDS011;10593;48.398;10.698;2023-10-13T13:57:09;2.53;;;1.77;;
20865;SDS011;10593;48.398;10.698;2023-10-13T13:59:34;2.03;;;1.70;;
20865;SDS011;10593;48.398;10.698;2023-10-13T14:02:01;2.13;;;1.93;;
20865;SDS011;10593;48.398;10.698;2023-10-13T14:04:45;2.27;;;2.07;;
20865;SDS011;10593;48.398;10.698;2023-10-13T14:07:18;3.63;;;1.80;;
20865;SDS011;10593;48.398;10.698;2023-10-13T14:09:49;2.20;;;2.00;;
20865;SDS011;10593;48.398;10.698;2023-10-13T14:12:18;4.07;;;2.00;;
20865;SDS011;10593;48.398;10.698;2023-10-13T14:15:07;4.80;;;2.17;;
20865;SDS011;10593;48.398;10.698;2023-10-13T14:17:45;3.37;;;1.90;;
20865;SDS011;10593;48.398;10.698;2023-10-13T14:20:14;2.80;;;1.80;;
20865;SDS011;10593;48.398;10.698;2023-10-13T14:22:44;3.00;;;1.80;;
20865;SDS011;10593;48.398;10.698;2023-10-13T14:25:13;2.30;;;2.00;;
20865;SDS011;10593;48.398;10.698;2023-10-13T14:27:40;2.07;;;1.97;;
20865;SDS011;10593;48.398;10.698;2023-10-13T14:30:07;2.47;;;1.80;;
20865;SDS011;10593;48.398;10.698;2023-10-13T14:32:33;2.80;;;1.97;;
20865;SDS011;10593;48.398;10.698;2023-10-13T14:35:05;1.60;;;1.50;;
20865;SDS011;10593;48.398;10.698;2023-10-13T14:37:39;3.40;;;1.80;;
20865;SDS011;10593;48.398;10.698;2023-10-13T14:40:06;2.37;;;1.77;;
20865;SDS011;10593;48.398;10.698;2023-10-13T14:42:37;2.57;;;2.07;;
20865;SDS011;10593;48.398;10.698;2023-10-13T14:45:05;2.10;;;1.57;;
20865;SDS011;10593;48.398;10.698;2023-10-13T14:47:39;3.63;;;1.90;;
20865;SDS011;10593;48.398;10.698;2023-10-13T14:50:05;1.70;;;1.60;;
20865;SDS011;10593;48.398;10.698;2023-10-13T14:52:31;4.73;;;1.90;;
20865;SDS011;10593;48.398;10.698;2023-10-13T14:54:57;2.17;;;1.80;;
20865;SDS011;10593;48.398;10.698;2023-10-13T14:57:23;2.03;;;1.83;;
20865;SDS011;10593;48.398;10.698;2023-10-13T14:59:53;6.00;;;1.87;;
20865;SDS011;10593;48.398;10.698;2023-10-13T15:02:20;2.97;;;2.10;;
20865;SDS011;10593;48.398;10.698;2023-10-13T15:04:47;1.90;;;1.77;;
20865;SDS011;10593;48.398;10.698;2023-10-13T15:07:14;1.90;;;1.80;;
20865;SDS011;10593;48.398;10.698;2023-10-13T15:09:42;2.53;;;1.77;;
20865;SDS011;10593;48.398;10.698;2023-10-13T15:12:09;3.73;;;2.27;;
20865;SDS011;10593;48.398;10.698;2023-10-13T15:14:38;2.53;;;1.93;;
20865;SDS011;10593;48.398;10.698;2023-10-13T15:17:07;1.60;;;1.50;;
20865;SDS011;10593;48.398;10.698;2023-10-13T15:19:41;3.40;;;1.70;;
20865;SDS011;10593;48.398;10.698;2023-10-13T15:22:08;3.27;;;1.83;;
20865;SDS011;10593;48.398;10.698;2023-10-13T15:24:50;3.13;;;1.80;;
20865;SDS011;10593;48.398;10.698;2023-10-13T15:27:34;1.50;;;1.40;;
20865;SDS011;10593;48.398;10.698;2023-10-13T15:30:06;4.90;;;2.13;;
20865;SDS011;10593;48.398;10.698;2023-10-13T15:32:45;4.50;;;2.07;;
20865;SDS011;10593;48.398;10.698;2023-10-13T15:35:11;2.80;;;1.90;;
20865;SDS011;10593;48.398;10.698;2023-10-13T15:37:40;4.93;;;1.80;;
20865;SDS011;10593;48.398;10.698;2023-10-13T15:40:12;2.50;;;2.03;;
20865;SDS011;10593;48.398;10.698;2023-10-13T15:42:44;2.03;;;1.60;;
20865;SDS011;10593;48.398;10.698;2023-10-13T15:45:10;2.17;;;1.97;;
20865;SDS011;10593;48.398;10.698;2023-10-13T15:47:42;2.60;;;2.10;;
20865;SDS011;10593;48.398;10.698;2023-10-13T15:50:15;2.83;;;1.90;;
20865;SDS011;10593;48.398;10.698;2023-10-13T15:52:44;2.67;;;1.80;;
20865;SDS011;10593;48.398;10.698;2023-10-13T15:55:11;3.10;;;2.27;;
20865;SDS011;10593;48.398;10.698;2023-10-13T15:57:39;2.00;;;1.77;;
20865;SDS011;10593;48.398;10.698;2023-10-13T16:00:09;3.07;;;1.87;;
20865;SDS011;10593;48.398;10.698;2023-10-13T16:02:49;2.80;;;1.77;;